sensor_id;sensor_type;location;lat;lon;timestamp;pressure;altitude;pressure_sealevel;temperature;humidity
13387;BME280;6763;48.524;9.044;2022-07-22T00:01:38;98152.00;;;23.24;50.74
13387;BME280;6763;48.524;9.044;2022-07-22T00:04:03;98154.84;;;23.21;50.88
13387;BME280;6763;48.524;9.044;2022-07-22T00:06:30;98156.91;;;23.16;51.02
13387;BME280;6763;48.524;9.044;2022-07-22T00:08:56;98152.88;;;23.10;51.06
13387;BME280;6763;48.524;9.044;2022-07-22T00:11:22;98150.41;;;23.07;51.31
13387;BME280;6763;48.524;9.044;2022-07-22T00:13:47;98162.03;;;23.05;51.32
13387;BME280;6763;48.524;9.044;2022-07-22T00:16:13;98155.13;;;23.02;51.34
13387;BME280;6763;48.524;9.044;2022-07-22T00:18:38;98154.28;;;23.02;51.38
13387;BME280;6763;48.524;9.044;2022-07-22T00:21:04;98146.47;;;23.00;51.66
13387;BME280;6763;48.524;9.044;2022-07-22T00:23:29;98147.41;;;22.99;51.64
13387;BME280;6763;48.524;9.044;2022-07-22T00:25:55;98145.72;;;22.98;51.56
13387;BME280;6763;48.524;9.044;2022-07-22T00:28:21;98145.81;;;22.97;51.98
13387;BME280;6763;48.524;9.044;2022-07-22T00:30:46;98138.00;;;22.95;51.54
13387;BME280;6763;48.524;9.044;2022-07-22T00:33:12;98142.41;;;22.95;51.75
13387;BME280;6763;48.524;9.044;2022-07-22T00:35:37;98150.53;;;22.92;52.04
13387;BME280;6763;48.524;9.044;2022-07-22T00:38:03;98145.44;;;22.89;52.11
13387;BME280;6763;48.524;9.044;2022-07-22T00:40:28;98151.84;;;22.84;52.05
13387;BME280;6763;48.524;9.044;2022-07-22T00:42:54;98145.84;;;22.82;52.25
13387;BME280;6763;48.524;9.044;2022-07-22T00:45:19;98141.47;;;22.81;52.26
13387;BME280;6763;48.524;9.044;2022-07-22T00:47:45;98143.19;;;22.82;52.23
13387;BME280;6763;48.524;9.044;2022-07-22T00:50:10;98138.94;;;22.80;52.40
13387;BME280;6763;48.524;9.044;2022-07-22T00:52:36;98139.31;;;22.74;52.50
13387;BME280;6763;48.524;9.044;2022-07-22T00:55:02;98140.44;;;22.70;52.65
13387;BME280;6763;48.524;9.044;2022-07-22T00:57:28;98137.25;;;22.65;52.61
13387;BME280;6763;48.524;9.044;2022-07-22T00:59:55;98141.06;;;22.59;52.96
13387;BME280;6763;48.524;9.044;2022-07-22T01:02:20;98142.38;;;22.52;53.02
13387;BME280;6763;48.524;9.044;2022-07-22T01:04:46;98143.59;;;22.47;53.14
13387;BME280;6763;48.524;9.044;2022-07-22T01:07:11;98136.81;;;22.43;52.99
13387;BME280;6763;48.524;9.044;2022-07-22T01:09:37;98127.31;;;22.40;53.27
13387;BME280;6763;48.524;9.044;2022-07-22T01:12:03;98130.03;;;22.39;53.26
13387;BME280;6763;48.524;9.044;2022-07-22T01:14:29;98133.53;;;22.39;53.23
13387;BME280;6763;48.524;9.044;2022-07-22T01:16:54;98121.06;;;22.41;53.38
13387;BME280;6763;48.524;9.044;2022-07-22T01:19:20;98122.09;;;22.39;53.55
13387;BME280;6763;48.524;9.044;2022-07-22T01:21:45;98127.59;;;22.36;53.63
13387;BME280;6763;48.524;9.044;2022-07-22T01:24:10;98127.03;;;22.31;53.73
13387;BME280;6763;48.524;9.044;2022-07-22T01:26:36;98124.56;;;22.28;53.74
13387;BME280;6763;48.524;9.044;2022-07-22T01:29:02;98127.38;;;22.24;53.95
13387;BME280;6763;48.524;9.044;2022-07-22T01:31:27;98140.75;;;22.21;53.92
13387;BME280;6763;48.524;9.044;2022-07-22T01:33:54;98131.34;;;22.17;53.89
13387;BME280;6763;48.524;9.044;2022-07-22T01:36:19;98133.31;;;22.14;54.07
13387;BME280;6763;48.524;9.044;2022-07-22T01:38:44;98139.72;;;22.10;54.31
13387;BME280;6763;48.524;9.044;2022-07-22T01:41:10;98133.00;;;22.04;54.21
13387;BME280;6763;48.524;9.044;2022-07-22T01:43:36;98138.53;;;22.00;54.22
13387;BME280;6763;48.524;9.044;2022-07-22T01:46:01;98133.47;;;21.97;54.22
13387;BME280;6763;48.524;9.044;2022-07-22T01:48:27;98127.34;;;21.96;54.25
13387;BME280;6763;48.524;9.044;2022-07-22T01:50:53;98137.03;;;21.96;54.27
13387;BME280;6763;48.524;9.044;2022-07-22T01:53:18;98130.91;;;21.95;54.38
13387;BME280;6763;48.524;9.044;2022-07-22T01:55:44;98133.47;;;21.97;54.18
13387;BME280;6763;48.524;9.044;2022-07-22T01:58:09;98136.00;;;21.98;54.26
13387;BME280;6763;48.524;9.044;2022-07-22T02:00:35;98129.78;;;21.99;54.21
13387;BME280;6763;48.524;9.044;2022-07-22T02:03:01;98134.09;;;22.00;54.31
13387;BME280;6763;48.524;9.044;2022-07-22T02:05:27;98128.84;;;22.00;54.39
13387;BME280;6763;48.524;9.044;2022-07-22T02:07:52;98135.72;;;22.03;54.62
13387;BME280;6763;48.524;9.044;2022-07-22T02:10:18;98133.75;;;22.06;54.62
13387;BME280;6763;48.524;9.044;2022-07-22T02:12:43;98134.44;;;22.10;54.99
13387;BME280;6763;48.524;9.044;2022-07-22T02:15:09;98130.66;;;22.14;54.60
13387;BME280;6763;48.524;9.044;2022-07-22T02:17:35;98120.00;;;22.15;54.38
13387;BME280;6763;48.524;9.044;2022-07-22T02:20:00;98128.78;;;22.16;54.57
13387;BME280;6763;48.524;9.044;2022-07-22T02:22:26;98120.22;;;22.12;54.44
13387;BME280;6763;48.524;9.044;2022-07-22T02:24:52;98120.47;;;22.08;54.28
13387;BME280;6763;48.524;9.044;2022-07-22T02:27:17;98118.22;;;22.02;54.23
13387;BME280;6763;48.524;9.044;2022-07-22T02:29:42;98121.22;;;21.96;54.61
13387;BME280;6763;48.524;9.044;2022-07-22T02:32:08;98117.13;;;21.90;54.28
13387;BME280;6763;48.524;9.044;2022-07-22T02:34:33;98118.31;;;21.85;54.63
13387;BME280;6763;48.524;9.044;2022-07-22T02:36:59;98115.19;;;21.78;54.59
13387;BME280;6763;48.524;9.044;2022-07-22T02:39:25;98108.38;;;21.74;54.56
13387;BME280;6763;48.524;9.044;2022-07-22T02:41:50;98112.06;;;21.72;54.88
13387;BME280;6763;48.524;9.044;2022-07-22T02:44:15;98114.88;;;21.69;54.71
13387;BME280;6763;48.524;9.044;2022-07-22T02:46:41;98113.19;;;21.68;54.69
13387;BME280;6763;48.524;9.044;2022-07-22T02:49:06;98112.44;;;21.66;54.97
13387;BME280;6763;48.524;9.044;2022-07-22T02:51:31;98109.78;;;21.66;54.87
13387;BME280;6763;48.524;9.044;2022-07-22T02:53:57;98118.63;;;21.64;55.05
13387;BME280;6763;48.524;9.044;2022-07-22T02:56:22;98116.09;;;21.63;54.91
13387;BME280;6763;48.524;9.044;2022-07-22T02:58:47;98113.53;;;21.61;54.61
13387;BME280;6763;48.524;9.044;2022-07-22T03:01:17;98118.03;;;21.59;54.87
13387;BME280;6763;48.524;9.044;2022-07-22T03:03:42;98119.94;;;21.57;54.98
13387;BME280;6763;48.524;9.044;2022-07-22T03:06:08;98124.44;;;21.55;55.00
13387;BME280;6763;48.524;9.044;2022-07-22T03:08:33;98127.13;;;21.54;54.90
13387;BME280;6763;48.524;9.044;2022-07-22T03:10:59;98120.16;;;21.53;54.88
13387;BME280;6763;48.524;9.044;2022-07-22T03:13:24;98121.03;;;21.53;55.11
13387;BME280;6763;48.524;9.044;2022-07-22T03:15:50;98118.50;;;21.52;54.92
13387;BME280;6763;48.524;9.044;2022-07-22T03:18:15;98124.59;;;21.52;55.07
13387;BME280;6763;48.524;9.044;2022-07-22T03:20:41;98121.19;;;21.50;55.18
13387;BME280;6763;48.524;9.044;2022-07-22T03:23:06;98116.88;;;21.49;55.22
13387;BME280;6763;48.524;9.044;2022-07-22T03:25:31;98120.44;;;21.48;55.43
13387;BME280;6763;48.524;9.044;2022-07-22T03:27:58;98133.72;;;21.47;55.41
13387;BME280;6763;48.524;9.044;2022-07-22T03:30:23;98132.16;;;21.43;55.58
13387;BME280;6763;48.524;9.044;2022-07-22T03:32:49;98128.13;;;21.37;55.74
13387;BME280;6763;48.524;9.044;2022-07-22T03:35:15;98134.47;;;21.33;55.89
13387;BME280;6763;48.524;9.044;2022-07-22T03:37:41;98132.97;;;21.29;55.58
13387;BME280;6763;48.524;9.044;2022-07-22T03:40:07;98126.16;;;21.25;55.70
13387;BME280;6763;48.524;9.044;2022-07-22T03:42:33;98131.59;;;21.22;55.81
13387;BME280;6763;48.524;9.044;2022-07-22T03:44:58;98127.34;;;21.20;55.75
13387;BME280;6763;48.524;9.044;2022-07-22T03:47:23;98128.34;;;21.17;55.82
13387;BME280;6763;48.524;9.044;2022-07-22T03:49:50;98125.81;;;21.16;55.78
13387;BME280;6763;48.524;9.044;2022-07-22T03:52:15;98131.25;;;21.13;55.90
13387;BME280;6763;48.524;9.044;2022-07-22T03:54:44;98134.06;;;21.10;55.98
13387;BME280;6763;48.524;9.044;2022-07-22T03:57:09;98130.56;;;21.09;55.85
13387;BME280;6763;48.524;9.044;2022-07-22T03:59:35;98128.88;;;21.08;55.79
13387;BME280;6763;48.524;9.044;2022-07-22T04:02:01;98129.75;;;21.09;56.15
13387;BME280;6763;48.524;9.044;2022-07-22T04:04:27;98137.53;;;21.10;56.09
13387;BME280;6763;48.524;9.044;2022-07-22T04:06:52;98139.31;;;21.10;56.04
13387;BME280;6763;48.524;9.044;2022-07-22T04:09:18;98127.09;;;21.09;56.21
13387;BME280;6763;48.524;9.044;2022-07-22T04:11:43;98135.00;;;21.09;56.28
13387;BME280;6763;48.524;9.044;2022-07-22T04:14:09;98126.09;;;21.11;56.22
13387;BME280;6763;48.524;9.044;2022-07-22T04:16:35;98119.88;;;21.12;55.97
13387;BME280;6763;48.524;9.044;2022-07-22T04:19:03;98122.34;;;21.15;56.03
13387;BME280;6763;48.524;9.044;2022-07-22T04:21:29;98116.97;;;21.17;55.72
13387;BME280;6763;48.524;9.044;2022-07-22T04:23:55;98122.19;;;21.18;56.00
13387;BME280;6763;48.524;9.044;2022-07-22T04:26:21;98124.72;;;21.20;55.89
13387;BME280;6763;48.524;9.044;2022-07-22T04:28:46;98123.69;;;21.22;55.89
13387;BME280;6763;48.524;9.044;2022-07-22T04:31:11;98120.97;;;21.24;55.97
13387;BME280;6763;48.524;9.044;2022-07-22T04:33:37;98121.75;;;21.26;56.03
13387;BME280;6763;48.524;9.044;2022-07-22T04:36:03;98121.75;;;21.26;55.98
13387;BME280;6763;48.524;9.044;2022-07-22T04:38:28;98116.47;;;21.26;55.96
13387;BME280;6763;48.524;9.044;2022-07-22T04:40:54;98123.63;;;21.24;55.83
13387;BME280;6763;48.524;9.044;2022-07-22T04:43:19;98119.22;;;21.24;56.06
13387;BME280;6763;48.524;9.044;2022-07-22T04:45:45;98126.56;;;21.33;56.20
13387;BME280;6763;48.524;9.044;2022-07-22T04:48:10;98122.56;;;21.57;55.94
13387;BME280;6763;48.524;9.044;2022-07-22T04:50:36;98123.53;;;21.86;55.53
13387;BME280;6763;48.524;9.044;2022-07-22T04:53:02;98118.22;;;22.16;54.86
13387;BME280;6763;48.524;9.044;2022-07-22T04:55:27;98114.78;;;22.44;54.00
13387;BME280;6763;48.524;9.044;2022-07-22T04:57:53;98113.78;;;22.74;53.55
13387;BME280;6763;48.524;9.044;2022-07-22T05:00:18;98110.34;;;23.01;52.93
13387;BME280;6763;48.524;9.044;2022-07-22T05:02:44;98107.84;;;23.26;52.46
13387;BME280;6763;48.524;9.044;2022-07-22T05:05:09;98106.38;;;23.49;51.29
13387;BME280;6763;48.524;9.044;2022-07-22T05:07:35;98106.09;;;23.66;50.79
13387;BME280;6763;48.524;9.044;2022-07-22T05:10:00;98100.56;;;23.83;50.00
13387;BME280;6763;48.524;9.044;2022-07-22T05:12:25;98105.66;;;23.98;49.64
13387;BME280;6763;48.524;9.044;2022-07-22T05:14:51;98106.34;;;24.15;48.71
13387;BME280;6763;48.524;9.044;2022-07-22T05:17:16;98110.69;;;24.28;48.38
13387;BME280;6763;48.524;9.044;2022-07-22T05:19:41;98102.13;;;24.37;47.63
13387;BME280;6763;48.524;9.044;2022-07-22T05:22:08;98097.75;;;24.49;47.20
13387;BME280;6763;48.524;9.044;2022-07-22T05:24:33;98088.88;;;24.62;47.15
13387;BME280;6763;48.524;9.044;2022-07-22T05:26:59;98098.19;;;24.81;46.93
13387;BME280;6763;48.524;9.044;2022-07-22T05:29:24;98091.59;;;24.99;46.15
13387;BME280;6763;48.524;9.044;2022-07-22T05:31:50;98089.53;;;25.15;45.96
13387;BME280;6763;48.524;9.044;2022-07-22T05:34:15;98094.56;;;25.31;45.73
13387;BME280;6763;48.524;9.044;2022-07-22T05:36:40;98099.28;;;25.51;45.24
13387;BME280;6763;48.524;9.044;2022-07-22T05:39:06;98094.31;;;25.70;44.87
13387;BME280;6763;48.524;9.044;2022-07-22T05:41:31;98090.72;;;25.82;43.90
13387;BME280;6763;48.524;9.044;2022-07-22T05:43:56;98093.03;;;25.86;43.52
13387;BME280;6763;48.524;9.044;2022-07-22T05:46:22;98091.94;;;25.89;43.56
13387;BME280;6763;48.524;9.044;2022-07-22T05:48:47;98094.50;;;25.91;43.35
13387;BME280;6763;48.524;9.044;2022-07-22T05:51:13;98091.00;;;25.90;43.31
13387;BME280;6763;48.524;9.044;2022-07-22T05:53:39;98090.13;;;25.89;43.34
13387;BME280;6763;48.524;9.044;2022-07-22T05:56:05;98090.03;;;25.91;43.67
13387;BME280;6763;48.524;9.044;2022-07-22T05:58:30;98087.88;;;25.96;43.58
13387;BME280;6763;48.524;9.044;2022-07-22T06:00:56;98083.56;;;26.06;43.36
13387;BME280;6763;48.524;9.044;2022-07-22T06:03:22;98081.31;;;26.13;43.29
13387;BME280;6763;48.524;9.044;2022-07-22T06:05:47;98084.69;;;26.15;42.76
13387;BME280;6763;48.524;9.044;2022-07-22T06:08:13;98091.06;;;26.12;42.88
13387;BME280;6763;48.524;9.044;2022-07-22T06:10:38;98090.66;;;26.06;43.27
13387;BME280;6763;48.524;9.044;2022-07-22T06:13:04;98091.97;;;26.00;43.29
13387;BME280;6763;48.524;9.044;2022-07-22T06:15:29;98093.06;;;25.98;43.46
13387;BME280;6763;48.524;9.044;2022-07-22T06:17:54;98098.59;;;25.95;43.68
13387;BME280;6763;48.524;9.044;2022-07-22T06:20:20;98095.34;;;25.91;43.70
13387;BME280;6763;48.524;9.044;2022-07-22T06:22:45;98094.50;;;25.91;44.24
13387;BME280;6763;48.524;9.044;2022-07-22T06:25:11;98090.88;;;25.92;43.91
13387;BME280;6763;48.524;9.044;2022-07-22T06:27:36;98094.38;;;25.92;44.38
13387;BME280;6763;48.524;9.044;2022-07-22T06:30:02;98095.09;;;25.94;44.31
13387;BME280;6763;48.524;9.044;2022-07-22T06:32:28;98091.34;;;25.97;44.52
13387;BME280;6763;48.524;9.044;2022-07-22T06:34:53;98093.56;;;26.03;44.82
13387;BME280;6763;48.524;9.044;2022-07-22T06:37:19;98094.78;;;26.10;44.36
13387;BME280;6763;48.524;9.044;2022-07-22T06:39:44;98088.19;;;26.15;44.88
13387;BME280;6763;48.524;9.044;2022-07-22T06:42:11;98094.47;;;26.25;44.32
13387;BME280;6763;48.524;9.044;2022-07-22T06:44:37;98089.31;;;26.35;44.34
13387;BME280;6763;48.524;9.044;2022-07-22T06:47:02;98091.16;;;26.45;44.19
13387;BME280;6763;48.524;9.044;2022-07-22T06:49:28;98091.41;;;26.54;43.91
13387;BME280;6763;48.524;9.044;2022-07-22T06:51:53;98096.94;;;26.62;43.65
13387;BME280;6763;48.524;9.044;2022-07-22T06:54:18;98094.66;;;26.68;43.70
13387;BME280;6763;48.524;9.044;2022-07-22T06:56:44;98085.22;;;26.75;43.54
13387;BME280;6763;48.524;9.044;2022-07-22T06:59:09;98081.03;;;26.84;43.15
13387;BME280;6763;48.524;9.044;2022-07-22T07:01:35;98086.22;;;26.85;42.94
13387;BME280;6763;48.524;9.044;2022-07-22T07:04:00;98081.03;;;26.84;42.78
13387;BME280;6763;48.524;9.044;2022-07-22T07:06:27;98088.88;;;26.85;42.87
13387;BME280;6763;48.524;9.044;2022-07-22T07:08:52;98078.72;;;26.90;42.99
13387;BME280;6763;48.524;9.044;2022-07-22T07:11:18;98074.88;;;26.94;42.74
13387;BME280;6763;48.524;9.044;2022-07-22T07:13:43;98076.28;;;26.98;42.67
13387;BME280;6763;48.524;9.044;2022-07-22T07:16:09;98065.91;;;27.06;42.50
13387;BME280;6763;48.524;9.044;2022-07-22T07:18:35;98064.19;;;27.17;42.50
13387;BME280;6763;48.524;9.044;2022-07-22T07:21:00;98058.84;;;27.28;42.46
13387;BME280;6763;48.524;9.044;2022-07-22T07:23:25;98043.47;;;27.42;42.14
13387;BME280;6763;48.524;9.044;2022-07-22T07:25:51;98052.00;;;27.57;41.91
13387;BME280;6763;48.524;9.044;2022-07-22T07:28:16;98049.88;;;27.72;41.78
13387;BME280;6763;48.524;9.044;2022-07-22T07:30:42;98053.19;;;27.85;41.37
13387;BME280;6763;48.524;9.044;2022-07-22T07:33:07;98044.31;;;27.95;41.44
13387;BME280;6763;48.524;9.044;2022-07-22T07:35:32;98038.81;;;28.08;40.94
13387;BME280;6763;48.524;9.044;2022-07-22T07:37:58;98033.41;;;28.19;40.61
13387;BME280;6763;48.524;9.044;2022-07-22T07:40:23;98040.50;;;28.29;40.13
13387;BME280;6763;48.524;9.044;2022-07-22T07:42:49;98041.63;;;28.37;40.27
13387;BME280;6763;48.524;9.044;2022-07-22T07:45:14;98031.28;;;28.43;40.43
13387;BME280;6763;48.524;9.044;2022-07-22T07:47:40;98029.53;;;28.53;40.32
13387;BME280;6763;48.524;9.044;2022-07-22T07:50:07;98029.59;;;28.63;39.87
13387;BME280;6763;48.524;9.044;2022-07-22T07:52:40;98032.00;;;28.75;40.04
13387;BME280;6763;48.524;9.044;2022-07-22T07:55:08;98031.22;;;28.84;39.71
13387;BME280;6763;48.524;9.044;2022-07-22T07:57:34;98020.56;;;28.94;39.44
13387;BME280;6763;48.524;9.044;2022-07-22T07:59:59;98024.78;;;29.06;39.39
13387;BME280;6763;48.524;9.044;2022-07-22T08:02:25;98021.00;;;29.18;38.91
13387;BME280;6763;48.524;9.044;2022-07-22T08:04:50;98027.25;;;29.28;39.25
13387;BME280;6763;48.524;9.044;2022-07-22T08:07:15;98016.16;;;29.42;38.98
13387;BME280;6763;48.524;9.044;2022-07-22T08:09:41;98013.19;;;29.55;38.79
13387;BME280;6763;48.524;9.044;2022-07-22T08:12:06;98007.56;;;29.68;38.22
13387;BME280;6763;48.524;9.044;2022-07-22T08:14:32;98009.84;;;29.82;38.00
13387;BME280;6763;48.524;9.044;2022-07-22T08:16:58;98000.69;;;29.94;37.56
13387;BME280;6763;48.524;9.044;2022-07-22T08:19:23;98000.38;;;30.06;37.43
13387;BME280;6763;48.524;9.044;2022-07-22T08:21:48;98008.09;;;30.19;37.00
13387;BME280;6763;48.524;9.044;2022-07-22T08:24:14;97995.38;;;30.31;37.08
13387;BME280;6763;48.524;9.044;2022-07-22T08:26:39;97998.88;;;30.41;36.17
13387;BME280;6763;48.524;9.044;2022-07-22T08:29:05;97999.00;;;30.49;35.92
13387;BME280;6763;48.524;9.044;2022-07-22T08:31:33;97986.44;;;30.59;35.98
13387;BME280;6763;48.524;9.044;2022-07-22T08:34:01;97988.06;;;30.69;36.08
13387;BME280;6763;48.524;9.044;2022-07-22T08:36:27;97988.56;;;30.83;35.51
13387;BME280;6763;48.524;9.044;2022-07-22T08:38:52;97990.91;;;30.95;35.15
13387;BME280;6763;48.524;9.044;2022-07-22T08:41:18;97980.84;;;31.07;34.83
13387;BME280;6763;48.524;9.044;2022-07-22T08:43:45;97978.94;;;31.17;34.92
13387;BME280;6763;48.524;9.044;2022-07-22T08:46:12;97975.50;;;31.24;34.42
13387;BME280;6763;48.524;9.044;2022-07-22T08:48:38;97972.59;;;31.36;34.17
13387;BME280;6763;48.524;9.044;2022-07-22T08:51:04;97970.06;;;31.34;33.34
13387;BME280;6763;48.524;9.044;2022-07-22T08:53:30;97966.09;;;31.38;33.38
13387;BME280;6763;48.524;9.044;2022-07-22T08:55:55;97968.53;;;31.49;33.08
13387;BME280;6763;48.524;9.044;2022-07-22T08:58:21;97966.09;;;31.56;32.69
13387;BME280;6763;48.524;9.044;2022-07-22T09:00:46;97963.50;;;31.64;32.54
13387;BME280;6763;48.524;9.044;2022-07-22T09:03:24;97971.47;;;31.81;32.34
13387;BME280;6763;48.524;9.044;2022-07-22T09:05:53;97967.22;;;31.97;32.09
13387;BME280;6763;48.524;9.044;2022-07-22T09:08:19;97971.50;;;32.07;32.24
13387;BME280;6763;48.524;9.044;2022-07-22T09:10:45;97966.25;;;32.23;31.82
13387;BME280;6763;48.524;9.044;2022-07-22T09:13:11;97956.47;;;32.48;31.70
13387;BME280;6763;48.524;9.044;2022-07-22T09:15:50;97957.63;;;32.79;31.55
13387;BME280;6763;48.524;9.044;2022-07-22T09:18:16;97952.38;;;33.12;30.81
13387;BME280;6763;48.524;9.044;2022-07-22T09:20:42;97957.78;;;33.44;30.17
13387;BME280;6763;48.524;9.044;2022-07-22T09:23:17;97954.13;;;33.61;28.91
13387;BME280;6763;48.524;9.044;2022-07-22T09:25:44;97944.56;;;33.75;29.47
13387;BME280;6763;48.524;9.044;2022-07-22T09:28:12;97949.38;;;34.03;28.92
13387;BME280;6763;48.524;9.044;2022-07-22T09:31:07;97944.91;;;34.35;28.46
13387;BME280;6763;48.524;9.044;2022-07-22T09:33:47;97951.91;;;34.68;28.47
13387;BME280;6763;48.524;9.044;2022-07-22T09:36:14;97939.97;;;34.93;27.93
13387;BME280;6763;48.524;9.044;2022-07-22T09:38:40;97935.00;;;35.13;27.88
13387;BME280;6763;48.524;9.044;2022-07-22T09:41:05;97945.78;;;35.35;27.61
13387;BME280;6763;48.524;9.044;2022-07-22T09:43:35;97942.59;;;35.55;27.51
13387;BME280;6763;48.524;9.044;2022-07-22T09:46:00;97927.72;;;35.67;26.94
13387;BME280;6763;48.524;9.044;2022-07-22T09:48:26;97931.44;;;35.80;27.23
13387;BME280;6763;48.524;9.044;2022-07-22T09:50:53;97928.84;;;35.87;26.38
13387;BME280;6763;48.524;9.044;2022-07-22T09:53:20;97925.41;;;35.93;26.27
13387;BME280;6763;48.524;9.044;2022-07-22T09:55:47;97921.66;;;36.02;26.24
13387;BME280;6763;48.524;9.044;2022-07-22T09:58:13;97918.22;;;36.08;26.18
13387;BME280;6763;48.524;9.044;2022-07-22T10:00:39;97913.47;;;36.10;25.61
13387;BME280;6763;48.524;9.044;2022-07-22T10:03:06;97915.75;;;35.98;25.56
13387;BME280;6763;48.524;9.044;2022-07-22T10:05:37;97912.88;;;36.00;25.57
13387;BME280;6763;48.524;9.044;2022-07-22T10:08:05;97911.06;;;36.15;25.70
13387;BME280;6763;48.524;9.044;2022-07-22T10:10:31;97907.06;;;36.26;25.58
13387;BME280;6763;48.524;9.044;2022-07-22T10:12:58;97904.72;;;36.37;25.53
13387;BME280;6763;48.524;9.044;2022-07-22T10:15:27;97896.28;;;36.55;25.50
13387;BME280;6763;48.524;9.044;2022-07-22T10:17:55;97892.84;;;36.82;25.62
13387;BME280;6763;48.524;9.044;2022-07-22T10:20:26;97897.72;;;37.08;25.00
13387;BME280;6763;48.524;9.044;2022-07-22T10:22:57;97897.72;;;37.29;25.11
13387;BME280;6763;48.524;9.044;2022-07-22T10:25:25;97889.97;;;37.41;24.18
13387;BME280;6763;48.524;9.044;2022-07-22T10:27:59;97890.44;;;37.29;23.46
13387;BME280;6763;48.524;9.044;2022-07-22T10:30:28;97878.44;;;37.11;24.07
13387;BME280;6763;48.524;9.044;2022-07-22T10:33:04;97878.22;;;37.12;24.29
13387;BME280;6763;48.524;9.044;2022-07-22T10:35:30;97883.13;;;37.23;24.50
13387;BME280;6763;48.524;9.044;2022-07-22T10:37:59;97864.53;;;37.35;23.83
13387;BME280;6763;48.524;9.044;2022-07-22T10:40:27;97865.91;;;37.46;23.64
13387;BME280;6763;48.524;9.044;2022-07-22T10:45:24;97869.81;;;37.71;23.23
13387;BME280;6763;48.524;9.044;2022-07-22T10:55:39;97861.53;;;38.07;22.51
13387;BME280;6763;48.524;9.044;2022-07-22T11:00:58;97858.13;;;37.64;22.54
13387;BME280;6763;48.524;9.044;2022-07-22T11:03:25;97844.19;;;37.60;22.39
13387;BME280;6763;48.524;9.044;2022-07-22T11:05:51;97839.78;;;37.59;22.44
13387;BME280;6763;48.524;9.044;2022-07-22T11:08:16;97838.66;;;37.75;22.47
13387;BME280;6763;48.524;9.044;2022-07-22T11:10:48;97842.16;;;38.03;22.44
13387;BME280;6763;48.524;9.044;2022-07-22T11:13:32;97839.81;;;38.28;21.64
13387;BME280;6763;48.524;9.044;2022-07-22T11:16:36;97838.22;;;38.33;21.17
13387;BME280;6763;48.524;9.044;2022-07-22T11:19:03;97833.88;;;38.05;21.25
13387;BME280;6763;48.524;9.044;2022-07-22T11:21:30;97837.59;;;37.97;21.64
13387;BME280;6763;48.524;9.044;2022-07-22T11:23:59;97832.03;;;38.05;21.96
13387;BME280;6763;48.524;9.044;2022-07-22T11:26:33;97830.63;;;38.22;21.66
13387;BME280;6763;48.524;9.044;2022-07-22T11:28:59;97833.97;;;38.24;21.21
13387;BME280;6763;48.524;9.044;2022-07-22T11:31:26;97829.09;;;38.07;21.31
13387;BME280;6763;48.524;9.044;2022-07-22T11:33:51;97821.38;;;37.97;21.17
13387;BME280;6763;48.524;9.044;2022-07-22T11:36:17;97820.09;;;37.93;21.42
13387;BME280;6763;48.524;9.044;2022-07-22T11:38:47;97813.66;;;38.01;21.59
13387;BME280;6763;48.524;9.044;2022-07-22T11:41:15;97806.44;;;38.08;21.65
13387;BME280;6763;48.524;9.044;2022-07-22T11:43:45;97817.56;;;38.26;21.71
13387;BME280;6763;48.524;9.044;2022-07-22T11:46:12;97809.97;;;38.56;21.45
13387;BME280;6763;48.524;9.044;2022-07-22T11:48:39;97801.94;;;38.82;21.50
13387;BME280;6763;48.524;9.044;2022-07-22T11:51:06;97793.00;;;39.07;21.18
13387;BME280;6763;48.524;9.044;2022-07-22T11:53:32;97799.91;;;39.30;20.73
13387;BME280;6763;48.524;9.044;2022-07-22T11:56:01;97795.91;;;39.52;20.70
13387;BME280;6763;48.524;9.044;2022-07-22T12:01:07;97784.44;;;39.56;19.82
13387;BME280;6763;48.524;9.044;2022-07-22T12:03:35;97784.69;;;39.42;20.09
13387;BME280;6763;48.524;9.044;2022-07-22T12:06:05;97781.31;;;39.46;20.27
13387;BME280;6763;48.524;9.044;2022-07-22T12:08:32;97769.84;;;39.64;20.08
13387;BME280;6763;48.524;9.044;2022-07-22T12:10:58;97772.09;;;39.80;20.31
13387;BME280;6763;48.524;9.044;2022-07-22T12:13:31;97770.38;;;39.99;19.90
13387;BME280;6763;48.524;9.044;2022-07-22T12:15:57;97758.00;;;40.16;19.61
13387;BME280;6763;48.524;9.044;2022-07-22T12:18:25;97759.03;;;40.21;19.08
13387;BME280;6763;48.524;9.044;2022-07-22T12:20:52;97761.00;;;40.08;19.04
13387;BME280;6763;48.524;9.044;2022-07-22T12:23:17;97750.38;;;39.93;19.41
13387;BME280;6763;48.524;9.044;2022-07-22T12:28:18;97744.84;;;40.19;19.30
13387;BME280;6763;48.524;9.044;2022-07-22T12:30:44;97737.06;;;40.36;18.73
13387;BME280;6763;48.524;9.044;2022-07-22T12:33:17;97732.44;;;40.37;18.86
13387;BME280;6763;48.524;9.044;2022-07-22T12:35:44;97743.16;;;40.25;18.94
13387;BME280;6763;48.524;9.044;2022-07-22T12:38:22;97738.56;;;40.25;18.55
13387;BME280;6763;48.524;9.044;2022-07-22T12:40:47;97742.19;;;40.13;18.80
13387;BME280;6763;48.524;9.044;2022-07-22T12:43:13;97742.03;;;39.88;18.85
13387;BME280;6763;48.524;9.044;2022-07-22T12:45:38;97739.41;;;39.69;19.23
13387;BME280;6763;48.524;9.044;2022-07-22T12:50:39;97736.38;;;39.19;19.12
13387;BME280;6763;48.524;9.044;2022-07-22T12:53:06;97736.97;;;39.01;19.79
13387;BME280;6763;48.524;9.044;2022-07-22T12:55:34;97742.41;;;39.01;19.90
13387;BME280;6763;48.524;9.044;2022-07-22T12:58:00;97731.97;;;39.12;19.75
13387;BME280;6763;48.524;9.044;2022-07-22T13:00:29;97728.00;;;39.34;19.83
13387;BME280;6763;48.524;9.044;2022-07-22T13:02:55;97727.69;;;39.75;19.49
13387;BME280;6763;48.524;9.044;2022-07-22T13:05:22;97719.06;;;40.10;19.54
13387;BME280;6763;48.524;9.044;2022-07-22T13:07:48;97724.47;;;40.48;18.92
13387;BME280;6763;48.524;9.044;2022-07-22T13:10:14;97716.53;;;40.78;18.68
13387;BME280;6763;48.524;9.044;2022-07-22T13:12:40;97706.22;;;40.93;18.46
13387;BME280;6763;48.524;9.044;2022-07-22T13:15:06;97711.25;;;41.14;18.19
13387;BME280;6763;48.524;9.044;2022-07-22T13:17:32;97707.91;;;41.37;17.99
13387;BME280;6763;48.524;9.044;2022-07-22T13:19:57;97708.66;;;41.44;17.37
13387;BME280;6763;48.524;9.044;2022-07-22T13:22:23;97701.88;;;41.35;17.50
13387;BME280;6763;48.524;9.044;2022-07-22T13:24:48;97707.75;;;41.32;17.66
13387;BME280;6763;48.524;9.044;2022-07-22T13:27:14;97698.91;;;41.36;17.74